Time;durP1;ratioP1;P1;durP2;ratioP2;P2;SDS_P1;SDS_P2;PMS_P1;PMS_P2;Temp;Humidity;BMP_temperature;BMP_pressure;BME280_temperature;BME280_humidity;BME280_pressure;Samples;Min_cycle;Max_cycle;Signal;HPM_P1;HPM_P2
2024/01/09 00:00:36;;;;;;;19.90;7.38;;;;;;;-5.08;100.00;94261.13;5011092;28;20115;-68
2024/01/09 00:03:03;;;;;;;18.23;7.30;;;;;;;-5.28;100.00;94270.47;5010490;28;20037;-68
2024/01/09 00:05:31;;;;;;;18.95;7.25;;;;;;;-5.02;100.00;94267.91;5011173;28;20042;-68
2024/01/09 00:07:58;;;;;;;17.63;7.57;;;;;;;-5.53;100.00;94269.19;5011121;28;20483;-68
2024/01/09 00:10:26;;;;;;;17.17;7.55;;;;;;;-5.09;100.00;94264.88;5010251;28;20034;-68
2024/01/09 00:12:52;;;;;;;18.95;8.48;;;;;;;-5.46;100.00;94262.31;5010895;28;20058;-68
2024/01/09 00:15:19;;;;;;;19.20;9.68;;;;;;;-5.66;100.00;94287.66;5009214;28;20042;-68
2024/01/09 00:17:46;;;;;;;20.88;9.85;;;;;;;-5.89;100.00;94270.06;5010550;28;20837;-68
2024/01/09 00:20:14;;;;;;;20.00;9.80;;;;;;;-5.80;100.00;94286.16;5010198;28;20667;-68
2024/01/09 00:22:41;;;;;;;17.98;7.80;;;;;;;-5.89;100.00;94262.06;5010935;28;20046;-68
2024/01/09 00:25:08;;;;;;;17.85;7.53;;;;;;;-5.50;100.00;94274.72;5010047;28;20068;-68
2024/01/09 00:27:35;;;;;;;19.25;8.77;;;;;;;-5.61;100.00;94276.09;5010790;28;20042;-68
2024/01/09 00:30:02;;;;;;;16.85;7.28;;;;;;;-5.71;100.00;94282.47;5010231;28;20057;-68
2024/01/09 00:32:29;;;;;;;18.87;7.83;;;;;;;-5.78;100.00;94276.75;5025616;28;20068;-68
2024/01/09 00:34:56;;;;;;;18.50;7.60;;;;;;;-5.51;100.00;94285.75;5010717;28;20138;-68
2024/01/09 00:37:23;;;;;;;18.65;7.50;;;;;;;-5.68;100.00;94289.06;5009937;28;20037;-68
2024/01/09 00:39:53;;;;;;;17.42;7.13;;;;;;;-5.66;100.00;94279.66;5010781;28;20038;-68
2024/01/09 00:42:19;;;;;;;26.48;15.27;;;;;;;-6.05;100.00;94286.47;5009899;28;20483;-68
2024/01/09 00:44:46;;;;;;;20.47;8.80;;;;;;;-5.70;100.00;94281.34;5010541;28;20045;-68
2024/01/09 00:47:13;;;;;;;16.00;6.57;;;;;;;-5.53;100.00;94278.03;5009506;28;20418;-68
2024/01/09 00:49:40;;;;;;;21.35;7.90;;;;;;;-5.50;100.00;94282.75;5010265;28;20042;-68
2024/01/09 00:52:07;;;;;;;20.77;7.63;;;;;;;-5.42;100.00;94273.22;5009596;28;20038;-68
2024/01/09 00:54:34;;;;;;;19.00;8.00;;;;;;;-5.68;100.00;94284.50;5010384;28;20038;-69
2024/01/09 00:57:00;;;;;;;24.93;12.67;;;;;;;-6.23;100.00;94292.75;5010526;28;20085;-68
2024/01/09 00:59:27;;;;;;;21.00;8.63;;;;;;;-5.79;100.00;94288.53;5008862;28;20864;-68
2024/01/09 01:01:54;;;;;;;25.30;12.65;;;;;;;-5.96;100.00;94285.75;5010224;28;20056;-68
2024/01/09 01:04:21;;;;;;;19.85;8.27;;;;;;;-5.62;100.00;94288.66;5009305;28;20640;-68
2024/01/09 01:06:48;;;;;;;19.27;7.93;;;;;;;-5.72;100.00;94286.22;5010109;28;20048;-68
2024/01/09 01:09:14;;;;;;;22.13;10.00;;;;;;;-5.82;100.00;94297.94;5009262;28;20455;-68
2024/01/09 01:11:41;;;;;;;20.40;7.97;;;;;;;-5.82;100.00;94297.16;5009999;28;20050;-68
2024/01/09 01:14:08;;;;;;;22.90;8.75;;;;;;;-5.79;100.00;94295.75;5007873;28;20069;-68
2024/01/09 01:16:34;;;;;;;26.05;10.45;;;;;;;-5.58;100.00;94294.19;5009571;28;20080;-68
2024/01/09 01:19:01;;;;;;;24.30;8.43;;;;;;;-5.57;100.00;94295.78;5009413;28;20072;-67
2024/01/09 01:21:28;;;;;;;20.00;8.27;;;;;;;-5.54;100.00;94299.72;5009719;28;20406;-69
2024/01/09 01:23:55;;;;;;;20.05;8.10;;;;;;;-5.56;100.00;94297.34;5024961;28;20042;-68
2024/01/09 01:26:22;;;;;;;19.20;7.85;;;;;;;-5.60;100.00;94296.38;5008699;28;20046;-68
2024/01/09 01:28:48;;;;;;;19.58;8.10;;;;;;;-5.57;100.00;94306.47;5009796;28;20053;-68
2024/01/09 01:31:15;;;;;;;23.52;10.40;;;;;;;-6.08;100.00;94302.31;5008824;28;20050;-68
2024/01/09 01:33:42;;;;;;;22.67;9.50;;;;;;;-6.18;100.00;94295.31;5009750;28;20689;-68
2024/01/09 01:36:15;;;;;;;21.67;8.63;;;;;;;-5.75;100.00;94297.53;5009023;28;20046;-70
2024/01/09 01:38:43;;;;;;;22.90;9.88;;;;;;;-6.08;100.00;94295.06;5009625;28;20058;-68
2024/01/09 01:41:10;;;;;;;22.20;8.27;;;;;;;-5.77;100.00;94288.25;5008849;28;20041;-68
2024/01/09 01:43:37;;;;;;;21.40;9.52;;;;;;;-5.77;100.00;94289.03;5009487;28;20434;-68
2024/01/09 01:46:05;;;;;;;21.10;8.97;;;;;;;-5.66;100.00;94293.03;5009012;28;20056;-68
2024/01/09 01:48:33;;;;;;;21.95;8.30;;;;;;;-5.46;100.00;94293.63;5009029;28;20046;-69
2024/01/09 01:51:01;;;;;;;20.98;8.77;;;;;;;-5.45;100.00;94289.88;5009392;28;20042;-68
2024/01/09 01:53:31;;;;;;;19.83;8.02;;;;;;;-5.42;100.00;94297.28;5008171;28;20398;-68
2024/01/09 01:55:58;;;;;;;20.30;8.20;;;;;;;-5.67;100.00;94302.16;5009355;28;20041;-68
2024/01/09 01:58:27;;;;;;;23.90;9.20;;;;;;;-5.70;100.00;94296.63;5008657;28;20053;-68
2024/01/09 02:00:53;;;;;;;22.00;8.43;;;;;;;-5.62;100.00;94298.56;5009392;28;20085;-68
2024/01/09 02:03:20;;;;;;;22.48;8.82;;;;;;;-5.54;100.00;94291.69;5008392;28;20072;-68
2024/01/09 02:05:48;;;;;;;23.77;10.38;;;;;;;-5.74;100.00;94295.63;5009035;28;20425;-68
2024/01/09 02:08:19;;;;;;;23.85;11.98;;;;;;;-5.91;100.00;94290.97;5006926;28;20049;-68
2024/01/09 02:10:46;;;;;;;20.60;8.00;;;;;;;-5.71;100.00;94300.41;5007908;28;20038;-68
2024/01/09 02:13:13;;;;;;;21.85;8.82;;;;;;;-5.68;100.00;94297.88;5008438;28;20084;-68
2024/01/09 02:15:39;;;;;;;16.95;6.65;;;;;;;-5.76;100.00;94292.47;5009078;28;20050;-68
2024/01/09 02:18:06;;;;;;;21.95;8.60;;;;;;;-5.82;100.00;94289.91;5007694;28;20054;-68
2024/01/09 02:20:33;;;;;;;22.10;8.38;;;;;;;-6.08;100.00;94304.97;5008757;28;20042;-68
2024/01/09 02:23:00;;;;;;;22.93;8.17;;;;;;;-6.18;100.00;94292.63;5009060;28;20119;-68
2024/01/09 02:25:27;;;;;;;20.08;8.35;;;;;;;-6.08;100.00;94294.28;5007884;28;20204;-68
2024/01/09 02:28:10;;;;;;;24.55;10.77;;;;;;;-6.04;100.00;94296.09;5009065;28;20057;-68
2024/01/09 02:30:37;;;;;;;22.85;9.63;;;;;;;-5.96;100.00;94288.41;5008025;28;20234;-68
2024/01/09 02:33:07;;;;;;;25.75;15.20;;;;;;;-6.68;100.00;94301.41;5008446;28;20046;-68
2024/01/09 02:35:34;;;;;;;20.70;8.33;;;;;;;-6.23;100.00;94295.44;5008691;28;20048;-68
2024/01/09 02:38:01;;;;;;;20.33;8.20;;;;;;;-6.01;100.00;94296.56;5010252;28;20042;-62
2024/01/09 02:40:28;;;;;;;20.63;8.73;;;;;;;-6.18;100.00;94295.31;5012531;28;20046;-68
2024/01/09 02:42:56;;;;;;;22.67;10.40;;;;;;;-6.12;100.00;94287.97;5012901;28;20042;-68
2024/01/09 02:45:23;;;;;;;24.52;11.93;;;;;;;-6.37;100.00;94294.66;5011885;28;20048;-68
2024/01/09 02:47:49;;;;;;;19.70;8.40;;;;;;;-6.07;100.00;94296.66;5012389;28;20058;-68
2024/01/09 02:50:16;;;;;;;23.95;8.85;;;;;;;-6.38;100.00;94291.19;5011814;28;20064;-67
2024/01/09 02:52:43;;;;;;;21.92;9.13;;;;;;;-6.15;100.00;94297.38;5012546;28;20131;-68
2024/01/09 02:55:10;;;;;;;20.33;8.10;;;;;;;-6.26;100.00;94286.13;5012039;28;20506;-68
2024/01/09 02:57:40;;;;;;;23.45;9.20;;;;;;;-6.03;100.00;94296.88;5012268;28;20041;-67
2024/01/09 03:00:10;;;;;;;21.17;8.30;;;;;;;-5.93;100.00;94293.94;5027155;28;20054;-67
2024/01/09 03:02:37;;;;;;;19.77;8.45;;;;;;;-5.96;100.00;94286.53;5012065;28;20038;-66
2024/01/09 03:05:06;;;;;;;23.80;11.20;;;;;;;-6.22;100.00;94283.63;5011931;28;20085;-66
2024/01/09 03:07:34;;;;;;;24.80;12.35;;;;;;;-6.35;100.00;94297.81;5012183;28;20544;-67
2024/01/09 03:10:02;;;;;;;25.65;9.15;;;;;;;-6.27;100.00;94284.53;5011860;28;20087;-60
2024/01/09 03:12:29;;;;;;;20.60;7.80;;;;;;;-6.56;100.00;94300.91;5011936;28;20044;-66
2024/01/09 03:14:56;;;;;;;22.20;8.43;;;;;;;-6.59;100.00;94288.16;5010953;28;20042;-66
2024/01/09 03:17:23;;;;;;;21.50;9.02;;;;;;;-6.44;100.00;94301.19;5010977;28;20619;-67
2024/01/09 03:19:49;;;;;;;26.40;11.30;;;;;;;-6.59;100.00;94298.84;5012033;28;20050;-66
2024/01/09 03:22:16;;;;;;;23.25;9.15;;;;;;;-6.50;100.00;94289.03;5011284;28;20049;-66
2024/01/09 03:24:43;;;;;;;22.77;8.80;;;;;;;-6.46;100.00;94290.03;5027015;28;20077;-66
2024/01/09 03:27:10;;;;;;;23.98;9.02;;;;;;;-6.30;100.00;94281.69;5011445;28;20044;-66
2024/01/09 03:29:37;;;;;;;23.55;9.07;;;;;;;-6.32;100.00;94276.63;5011452;28;20038;-66
2024/01/09 03:32:05;;;;;;;22.15;9.02;;;;;;;-6.21;100.00;94271.88;5011232;28;20045;-67
2024/01/09 03:34:32;;;;;;;27.27;12.45;;;;;;;-6.52;100.00;94279.72;5011583;28;20690;-67
2024/01/09 03:36:58;;;;;;;22.10;9.77;;;;;;;-6.43;100.00;94273.41;5011878;28;20080;-67
2024/01/09 03:39:25;;;;;;;28.13;9.48;;;;;;;-6.21;100.00;94273.75;5011068;28;20049;-66
2024/01/09 03:41:52;;;;;;;23.83;11.18;;;;;;;-6.21;100.00;94274.53;5011681;28;20046;-67
2024/01/09 03:44:19;;;;;;;22.05;9.63;;;;;;;-6.51;100.00;94284.78;5026239;28;20052;-67
2024/01/09 03:46:45;;;;;;;23.20;9.18;;;;;;;-6.57;100.00;94277.19;5011484;28;20123;-66
2024/01/09 03:49:12;;;;;;;23.90;9.13;;;;;;;-6.52;100.00;94271.72;5011104;28;20037;-67
2024/01/09 03:51:40;;;;;;;23.45;9.95;;;;;;;-6.82;100.00;94281.94;5026436;28;20046;-67
2024/01/09 03:54:06;;;;;;;31.33;13.32;;;;;;;-6.85;100.00;94285.97;5011076;28;20371;-66
2024/01/09 03:56:33;;;;;;;26.58;11.00;;;;;;;-6.91;100.00;94284.50;5011224;28;20041;-66
2024/01/09 03:59:00;;;;;;;23.52;8.88;;;;;;;-6.69;100.00;94283.03;5011338;28;20111;-68
2024/01/09 04:01:27;;;;;;;22.43;9.20;;;;;;;-6.45;100.00;94293.47;5010067;28;20600;-67
2024/01/09 04:03:53;;;;;;;26.45;10.00;;;;;;;-6.29;100.00;94300.09;5011191;28;20418;-68
2024/01/09 04:06:20;;;;;;;24.58;9.15;;;;;;;-6.19;100.00;94274.25;5010350;28;20048;-68
2024/01/09 04:08:47;;;;;;;23.15;9.23;;;;;;;-6.33;100.00;94277.72;5010965;28;20041;-67
2024/01/09 04:11:14;;;;;;;28.08;12.27;;;;;;;-6.98;100.00;94276.13;5010619;28;20038;-68
2024/01/09 04:13:41;;;;;;;28.63;11.20;;;;;;;-6.90;100.00;94282.63;5010769;28;20053;-68
2024/01/09 04:16:13;;;;;;;25.25;9.15;;;;;;;-6.59;100.00;94287.38;5009253;28;20465;-68
2024/01/09 04:18:40;;;;;;;24.52;10.55;;;;;;;-6.53;100.00;94286.19;5010590;28;20042;-68
2024/01/09 04:21:07;;;;;;;24.67;9.38;;;;;;;-6.26;100.00;94286.13;5010259;28;20053;-67
2024/01/09 04:23:33;;;;;;;24.48;9.27;;;;;;;-6.16;100.00;94281.66;5010327;28;20041;-68
2024/01/09 04:26:00;;;;;;;25.20;9.70;;;;;;;-6.09;100.00;94279.38;5009609;28;20534;-68
2024/01/09 04:28:27;;;;;;;40.72;13.82;;;;;;;-6.08;100.00;94271.03;5009672;28;20797;-68
2024/01/09 04:30:56;;;;;;;29.30;13.70;;;;;;;-6.50;100.00;94291.72;5025780;28;20044;-68
2024/01/09 04:33:23;;;;;;;24.35;9.38;;;;;;;-6.68;100.00;94289.94;5009820;28;20475;-68
2024/01/09 04:35:50;;;;;;;31.95;11.73;;;;;;;-6.91;100.00;94286.38;5010288;28;20041;-68
2024/01/09 04:38:17;;;;;;;26.53;9.63;;;;;;;-6.91;100.00;94281.84;5010062;28;20052;-68
2024/01/09 04:40:44;;;;;;;27.20;10.20;;;;;;;-6.96;100.00;94284.63;5010249;28;20046;-68
2024/01/09 04:43:10;;;;;;;31.90;11.85;;;;;;;-6.65;100.00;94279.44;5025083;28;20050;-67
2024/01/09 04:45:37;;;;;;;27.55;8.85;;;;;;;-6.42;100.00;94271.50;5010208;28;20042;-68
2024/01/09 04:48:05;;;;;;;24.33;9.57;;;;;;;-6.38;100.00;94277.03;5009959;28;20040;-67
2024/01/09 04:50:32;;;;;;;24.47;8.53;;;;;;;-6.20;100.00;94272.66;5009849;28;20042;-68
2024/01/09 04:52:58;;;;;;;22.08;9.13;;;;;;;-6.46;100.00;94278.53;5009038;28;20045;-68
2024/01/09 04:55:25;;;;;;;25.65;9.77;;;;;;;-6.40;100.00;94265.88;5009370;28;20568;-68
2024/01/09 04:57:52;;;;;;;25.50;9.68;;;;;;;-6.22;100.00;94267.59;5010232;28;20048;-68
2024/01/09 05:00:19;;;;;;;25.75;9.85;;;;;;;-6.13;100.00;94273.84;5009332;28;20045;-68
2024/01/09 05:02:46;;;;;;;23.67;9.40;;;;;;;-5.93;100.00;94280.56;5010165;28;20046;-68
2024/01/09 05:05:14;;;;;;;24.33;8.80;;;;;;;-5.86;100.00;94275.56;5009483;28;20104;-68
2024/01/09 05:07:41;;;;;;;24.08;9.88;;;;;;;-5.84;100.00;94280.63;5009731;28;20050;-68
2024/01/09 05:10:08;;;;;;;24.40;9.50;;;;;;;-5.79;100.00;94279.72;5024501;28;20072;-69
2024/01/09 05:12:35;;;;;;;25.30;10.07;;;;;;;-5.89;100.00;94286.09;5009571;28;20380;-68
2024/01/09 05:15:01;;;;;;;27.03;11.00;;;;;;;-6.55;100.00;94288.34;5009481;28;20050;-67
2024/01/09 05:17:28;;;;;;;20.00;7.57;;;;;;;-6.57;100.00;94290.53;5009115;28;20049;-68
2024/01/09 05:19:56;;;;;;;27.60;9.98;;;;;;;-6.71;100.00;94282.53;5009537;28;20045;-68
2024/01/09 05:22:26;;;;;;;28.63;10.85;;;;;;;-6.99;100.00;94295.88;5009203;28;20103;-68
2024/01/09 05:24:52;;;;;;;27.63;10.18;;;;;;;-6.72;100.00;94296.94;5009807;28;20400;-68
2024/01/09 05:27:20;;;;;;;29.17;10.53;;;;;;;-6.85;100.00;94298.53;5008909;28;20527;-68
2024/01/09 05:29:46;;;;;;;25.08;9.48;;;;;;;-6.72;100.00;94295.09;5009046;28;20072;-68
2024/01/09 05:32:13;;;;;;;30.80;10.48;;;;;;;-6.93;100.00;94294.69;5008781;28;20414;-68
2024/01/09 05:34:40;;;;;;;19.90;7.90;;;;;;;-7.05;100.00;94294.38;5009221;28;20046;-68
2024/01/09 05:37:07;;;;;;;20.33;7.65;;;;;;;-7.30;100.00;94301.75;5009083;28;20042;-67
2024/01/09 05:39:34;;;;;;;52.53;18.97;;;;;;;-7.05;100.00;94297.03;5009048;28;20050;-68
2024/01/09 05:42:00;;;;;;;33.53;11.10;;;;;;;-6.87;100.00;94298.84;5009224;28;20067;-68
2024/01/09 05:44:27;;;;;;;47.55;19.90;;;;;;;-6.88;100.00;94286.59;5008116;28;20622;-68
2024/01/09 05:46:54;;;;;;;25.27;9.57;;;;;;;-7.20;100.00;94299.97;5009204;28;20042;-67
2024/01/09 05:49:20;;;;;;;43.17;15.88;;;;;;;-7.01;100.00;94294.59;5008847;28;20503;-67
2024/01/09 05:51:47;;;;;;;40.87;15.67;;;;;;;-6.79;100.00;94293.91;5009161;28;20041;-67
2024/01/09 05:54:14;;;;;;;27.02;10.65;;;;;;;-6.87;100.00;94296.16;5007717;28;20103;-67
2024/01/09 05:56:41;;;;;;;27.70;10.40;;;;;;;-6.69;100.00;94294.47;5008809;28;20678;-66
2024/01/09 05:59:08;;;;;;;31.17;11.05;;;;;;;-6.58;100.00;94303.06;5023655;28;20045;-67
2024/01/09 06:01:34;;;;;;;28.17;10.35;;;;;;;-6.95;100.00;94306.75;5012936;28;20038;-67
2024/01/09 06:04:02;;;;;;;27.10;9.83;;;;;;;-6.72;100.00;94303.09;4989422;28;20050;-66
2024/01/09 06:06:29;;;;;;;32.17;11.80;;;;;;;-6.66;100.00;94303.75;4989085;28;20046;-67
2024/01/09 06:08:56;;;;;;;27.30;10.10;;;;;;;-6.55;100.00;94305.16;4989282;28;20116;-67
2024/01/09 06:11:23;;;;;;;36.78;17.20;;;;;;;-6.83;100.00;94323.06;4988655;28;20499;-67
2024/01/09 06:13:50;;;;;;;29.15;10.80;;;;;;;-6.88;100.00;94315.13;4992398;28;20039;-67
2024/01/09 06:16:16;;;;;;;27.73;10.20;;;;;;;-6.79;100.00;94301.91;4992856;28;20054;-67
2024/01/09 06:18:43;;;;;;;28.25;10.70;;;;;;;-6.67;100.00;94304.88;4993029;28;20054;-67
2024/01/09 06:21:10;;;;;;;26.85;10.70;;;;;;;-6.47;100.00;94309.78;5011047;28;20057;-68
2024/01/09 06:23:37;;;;;;;27.58;10.13;;;;;;;-6.30;100.00;94311.06;5015356;28;20034;-66
2024/01/09 06:26:04;;;;;;;37.08;15.10;;;;;;;-6.80;100.00;94308.31;5021010;28;20072;-66
2024/01/09 06:28:31;;;;;;;30.60;12.27;;;;;;;-6.89;100.00;94303.66;5022594;28;20049;-66
2024/01/09 06:30:58;;;;;;;26.05;10.05;;;;;;;-7.03;100.00;94303.66;5021210;28;20045;-65
2024/01/09 06:33:26;;;;;;;24.45;8.68;;;;;;;-6.35;100.00;94298.59;5020471;28;20041;-65
2024/01/09 06:35:53;;;;;;;24.88;9.20;;;;;;;-6.47;100.00;94303.66;5023134;28;20038;-65
2024/01/09 06:38:20;;;;;;;27.98;10.90;;;;;;;-6.56;100.00;94308.94;5018423;28;20060;-64
2024/01/09 06:40:47;;;;;;;34.27;14.23;;;;;;;-6.76;100.00;94306.63;5021707;28;20134;-65
2024/01/09 06:43:14;;;;;;;27.17;10.27;;;;;;;-6.48;100.00;94308.22;5022487;28;20456;-65
2024/01/09 06:45:41;;;;;;;26.08;10.25;;;;;;;-6.45;100.00;94318.28;5026266;28;20037;-66
2024/01/09 06:48:08;;;;;;;27.02;9.70;;;;;;;-6.51;100.00;94314.16;5031740;28;20037;-66
2024/01/09 06:50:35;;;;;;;27.10;10.38;;;;;;;-6.30;100.00;94316.41;5031723;28;20068;-65
2024/01/09 06:53:04;;;;;;;26.80;10.53;;;;;;;-6.25;100.00;94318.97;5031632;28;20041;-65
2024/01/09 06:55:31;;;;;;;26.67;9.68;;;;;;;-6.25;100.00;94319.75;5031766;28;20116;-65
2024/01/09 06:57:58;;;;;;;33.40;10.52;;;;;;;-6.46;100.00;94321.25;5032580;28;20508;-64
2024/01/09 07:00:24;;;;;;;29.73;10.57;;;;;;;-6.44;100.00;94321.75;5047374;28;20586;-64
2024/01/09 07:02:51;;;;;;;28.88;10.65;;;;;;;-6.14;100.00;94314.97;5032487;28;20046;-64
2024/01/09 07:05:18;;;;;;;27.53;11.43;;;;;;;-6.83;100.00;94318.50;5032021;28;20045;-64
2024/01/09 07:07:45;;;;;;;21.42;7.28;;;;;;;-7.03;100.00;94326.88;5047397;28;20045;-66
2024/01/09 07:10:17;;;;;;;30.05;11.40;;;;;;;-7.48;100.00;94321.28;5031930;28;20131;-64
2024/01/09 07:12:44;;;;;;;29.73;11.50;;;;;;;-6.92;100.00;94314.13;5032031;28;20071;-65
2024/01/09 07:15:13;;;;;;;27.95;10.82;;;;;;;-6.60;100.00;94317.81;5031452;28;20038;-66
2024/01/09 07:17:42;;;;;;;33.57;11.07;;;;;;;-6.57;100.00;94325.25;5021356;28;20063;-64
2024/01/09 07:20:09;;;;;;;23.42;9.10;;;;;;;-6.49;100.00;94327.22;5011958;28;20042;-66
2024/01/09 07:22:37;;;;;;;29.60;10.75;;;;;;;-6.58;100.00;94329.75;5012240;28;20036;-65
2024/01/09 07:25:04;;;;;;;29.02;11.18;;;;;;;-6.50;100.00;94325.63;5011671;28;20064;-63
2024/01/09 07:27:30;;;;;;;30.05;11.85;;;;;;;-6.68;100.00;94333.44;5011887;28;20406;-65
2024/01/09 07:29:57;;;;;;;29.97;11.43;;;;;;;-6.46;100.00;94330.09;5027178;28;20046;-65
2024/01/09 07:32:25;;;;;;;38.53;16.40;;;;;;;-7.27;100.00;94338.50;5011640;28;20400;-65
2024/01/09 07:34:52;;;;;;;29.55;10.45;;;;;;;-6.72;100.00;94327.13;5011841;28;20054;-65
2024/01/09 07:37:22;;;;;;;26.73;9.20;;;;;;;-6.63;100.00;94333.34;5011675;28;20046;-66
2024/01/09 07:39:49;;;;;;;27.50;10.68;;;;;;;-6.95;100.00;94338.75;5011899;28;20038;-65
2024/01/09 07:42:17;;;;;;;29.97;10.53;;;;;;;-6.78;100.00;94330.16;5011557;28;20419;-65
2024/01/09 07:44:43;;;;;;;29.45;10.65;;;;;;;-6.51;100.00;94335.50;5011767;28;20038;-65
2024/01/09 07:47:11;;;;;;;36.63;14.55;;;;;;;-6.32;100.00;94334.59;5011488;28;20449;-65
2024/01/09 07:49:38;;;;;;;30.75;10.93;;;;;;;-6.67;100.00;94342.25;5011331;28;20045;-65
2024/01/09 07:52:06;;;;;;;25.08;8.70;;;;;;;-7.37;100.00;94353.88;5011558;28;20509;-65
2024/01/09 07:54:33;;;;;;;28.70;10.87;;;;;;;-7.21;100.00;94351.75;5011692;28;20402;-65
2024/01/09 07:57:00;;;;;;;33.83;12.68;;;;;;;-7.06;100.00;94346.94;5010693;28;20042;-65
2024/01/09 07:59:27;;;;;;;30.42;10.93;;;;;;;-6.75;100.00;94345.59;5010894;28;20859;-65
2024/01/09 08:01:54;;;;;;;30.80;10.77;;;;;;;-6.68;100.00;94349.47;5011671;28;20044;-65
2024/01/09 08:04:22;;;;;;;31.05;11.07;;;;;;;-6.43;100.00;94350.03;5011122;28;20053;-66
2024/01/09 08:06:50;;;;;;;39.17;17.07;;;;;;;-6.92;100.00;94351.50;5011410;28;20045;-65
2024/01/09 08:09:18;;;;;;;33.08;11.18;;;;;;;-7.13;100.00;94345.75;5011007;28;20123;-65
2024/01/09 08:11:46;;;;;;;29.08;11.25;;;;;;;-6.90;100.00;94352.81;5010974;28;20479;-65
2024/01/09 08:14:14;;;;;;;32.17;10.75;;;;;;;-6.64;100.00;94347.78;5010674;28;20064;-65
2024/01/09 08:16:41;;;;;;;30.85;11.13;;;;;;;-6.58;100.00;94348.44;5010638;28;20054;-65
2024/01/09 08:19:08;;;;;;;30.30;10.60;;;;;;;-6.55;100.00;94355.09;5010349;28;20411;-66
2024/01/09 08:21:35;;;;;;;43.20;20.40;;;;;;;-7.45;100.00;94361.44;5011012;28;20460;-66
2024/01/09 08:24:06;;;;;;;31.88;10.63;;;;;;;-7.30;100.00;94356.97;5010894;28;20046;-65
2024/01/09 08:26:33;;;;;;;35.15;11.77;;;;;;;-6.86;100.00;94359.13;5010784;28;20038;-66
2024/01/09 08:29:01;;;;;;;35.67;13.38;;;;;;;-6.72;100.00;94358.34;5026107;28;20299;-66
2024/01/09 08:31:28;;;;;;;30.93;10.37;;;;;;;-6.59;100.00;94359.44;5028414;28;20753;-66
2024/01/09 08:33:55;;;;;;;35.22;11.73;;;;;;;-6.85;100.00;94365.25;5030572;28;20042;-65
2024/01/09 08:36:22;;;;;;;30.63;10.65;;;;;;;-6.78;100.00;94352.31;5029356;28;20408;-66
2024/01/09 08:38:49;;;;;;;32.72;10.77;;;;;;;-6.54;100.00;94360.16;5030569;28;20504;-65
2024/01/09 08:41:17;;;;;;;32.30;11.73;;;;;;;-6.43;100.00;94366.06;5029609;28;20099;-65
2024/01/09 08:43:44;;;;;;;39.13;12.50;;;;;;;-6.26;100.00;94358.25;5030019;28;20044;-66
2024/01/09 08:46:11;;;;;;;34.38;13.05;;;;;;;-6.78;100.00;94371.00;5029518;28;20068;-66
2024/01/09 08:48:38;;;;;;;42.05;14.93;;;;;;;-6.80;100.00;94377.69;5029751;28;20045;-66
2024/01/09 08:51:05;;;;;;;30.70;11.05;;;;;;;-6.44;100.00;94373.28;5029360;28;20038;-65
2024/01/09 08:53:41;;;;;;;29.83;10.02;;;;;;;-6.66;100.00;94371.31;5029653;28;20043;-65
2024/01/09 08:56:08;;;;;;;35.33;12.30;;;;;;;-6.99;100.00;94370.56;5029977;28;20159;-65
2024/01/09 08:58:35;;;;;;;38.65;12.98;;;;;;;-6.79;100.00;94371.28;5029936;28;20049;-65
2024/01/09 09:01:03;;;;;;;44.47;21.45;;;;;;;-7.37;100.00;94373.31;5029776;28;20177;-66
2024/01/09 09:03:30;;;;;;;27.13;9.50;;;;;;;-7.05;100.00;94366.41;5029965;28;20391;-65
2024/01/09 09:05:57;;;;;;;36.40;13.52;;;;;;;-7.20;100.00;94386.13;5029937;28;20037;-65
2024/01/09 09:08:25;;;;;;;35.60;11.70;;;;;;;-6.92;100.00;94387.00;5028544;28;20045;-66
2024/01/09 09:10:52;;;;;;;33.80;11.32;;;;;;;-6.82;100.00;94383.34;5029993;28;20045;-65
2024/01/09 09:13:19;;;;;;;34.90;11.43;;;;;;;-6.65;100.00;94374.75;5029564;28;20041;-65
2024/01/09 09:15:46;;;;;;;31.33;11.00;;;;;;;-6.66;100.00;94381.16;5029785;28;20048;-65
2024/01/09 09:18:13;;;;;;;37.92;12.88;;;;;;;-6.62;100.00;94379.50;5029070;28;20089;-66
2024/01/09 09:20:40;;;;;;;39.90;15.00;;;;;;;-6.37;100.00;94391.59;5029631;28;20041;-66
2024/01/09 09:23:07;;;;;;;37.25;13.70;;;;;;;-6.49;100.00;94383.28;5044488;28;20389;-65
2024/01/09 09:25:35;;;;;;;47.15;20.00;;;;;;;-7.33;100.00;94389.53;5029439;28;20111;-66
2024/01/09 09:28:02;;;;;;;35.60;11.63;;;;;;;-7.00;100.00;94385.00;5029223;28;20041;-65
2024/01/09 09:30:29;;;;;;;35.10;12.10;;;;;;;-6.97;100.00;94391.63;5029817;28;20054;-65
2024/01/09 09:32:58;;;;;;;39.03;15.17;;;;;;;-7.09;100.00;94398.19;5029579;28;20555;-65
2024/01/09 09:35:25;;;;;;;31.48;11.10;;;;;;;-6.86;100.00;94396.50;5029163;28;20482;-65
2024/01/09 09:37:52;;;;;;;31.65;11.73;;;;;;;-6.73;100.00;94394.13;5044324;28;20044;-65
2024/01/09 09:40:19;;;;;;;35.90;12.40;;;;;;;-6.34;100.00;94392.84;5028712;28;20049;-66
2024/01/09 09:42:53;;;;;;;43.22;17.80;;;;;;;-7.51;100.00;94397.25;5029137;28;20045;-65
2024/01/09 09:45:21;;;;;;;37.57;13.47;;;;;;;-7.05;100.00;94401.88;5028817;28;20058;-65
2024/01/09 09:47:49;;;;;;;32.15;11.55;;;;;;;-6.93;100.00;94398.72;5028931;28;20393;-65
2024/01/09 09:50:17;;;;;;;32.38;11.40;;;;;;;-6.61;100.00;94390.97;5028789;28;20042;-66
2024/01/09 09:52:44;;;;;;;13.05;5.57;;;;;;;-7.06;100.00;94402.97;5029035;28;20047;-66
2024/01/09 09:55:11;;;;;;;28.50;10.68;;;;;;;-7.14;100.00;94392.16;5027625;28;20049;-66
2024/01/09 09:57:38;;;;;;;45.57;17.23;;;;;;;-7.03;100.00;94398.91;5029094;28;20714;-67
2024/01/09 10:00:09;;;;;;;31.15;10.68;;;;;;;-6.76;100.00;94405.38;5028934;28;20470;-66
2024/01/09 10:02:44;;;;;;;34.00;12.30;;;;;;;-7.00;100.00;94397.53;5029212;28;20049;-66
2024/01/09 10:05:16;;;;;;;32.35;10.98;;;;;;;-6.56;100.00;94385.53;5028750;28;20037;-67
2024/01/09 10:07:46;;;;;;;25.52;9.35;;;;;;;-6.82;100.00;94391.34;5029013;28;20086;-66
2024/01/09 10:10:18;;;;;;;31.50;11.47;;;;;;;-6.87;100.00;94392.22;5028916;28;20406;-66
2024/01/09 10:12:48;;;;;;;34.47;11.27;;;;;;;-7.02;100.00;94387.16;5029026;28;20034;-66
2024/01/09 10:15:17;;;;;;;34.47;10.32;;;;;;;-6.91;100.00;94379.78;5028583;28;20405;-66
2024/01/09 10:17:44;;;;;;;36.40;14.65;;;;;;;-7.04;100.00;94376.78;5028252;28;20048;-66
2024/01/09 10:20:12;;;;;;;33.42;11.43;;;;;;;-7.11;100.00;94381.69;5028600;28;20057;-66
2024/01/09 10:22:40;;;;;;;36.67;12.70;;;;;;;-6.72;100.00;94377.81;5029110;28;20046;-66
2024/01/09 10:25:12;;;;;;;36.63;10.98;;;;;;;-6.60;100.00;94377.31;5027482;28;20037;-65
2024/01/09 10:27:40;;;;;;;35.95;11.25;;;;;;;-6.36;100.00;94387.03;5027751;28;20460;-66
2024/01/09 10:30:09;;;;;;;30.42;11.93;;;;;;;-7.33;100.00;94384.97;5028597;28;20049;-66
2024/01/09 10:32:38;;;;;;;27.73;8.63;;;;;;;-7.12;100.00;94388.13;5043679;28;20103;-66
2024/01/09 10:35:10;;;;;;;30.47;10.43;;;;;;;-7.02;100.00;94387.16;5028375;28;20456;-66
2024/01/09 10:37:37;;;;;;;30.25;10.73;;;;;;;-6.93;100.00;94384.59;5028948;28;20042;-66
2024/01/09 10:40:05;;;;;;;29.08;8.98;;;;;;;-6.92;100.00;94383.50;5028271;28;20045;-65
2024/01/09 10:42:44;;;;;;;27.48;9.98;;;;;;;-7.28;100.00;94384.91;5028780;28;20071;-66
2024/01/09 10:45:11;;;;;;;33.92;11.82;;;;;;;-7.87;100.00;94378.34;5028530;28;20049;-66
2024/01/09 10:47:39;;;;;;;38.33;14.93;;;;;;;-7.40;100.00;94373.91;5028852;28;20051;-67
2024/01/09 10:50:09;;;;;;;35.08;11.25;;;;;;;-6.87;100.00;94370.88;5028379;28;20041;-67
2024/01/09 10:52:37;;;;;;;34.47;12.27;;;;;;;-6.63;100.00;94369.91;5028749;28;20042;-66
2024/01/09 10:55:08;;;;;;;34.50;12.02;;;;;;;-6.41;100.00;94368.44;5028070;28;20096;-66
2024/01/09 10:57:36;;;;;;;36.80;12.55;;;;;;;-7.24;100.00;94374.47;5027765;28;20406;-66
2024/01/09 11:00:08;;;;;;;37.33;13.00;;;;;;;-6.99;100.00;94375.91;5031577;28;20058;-64
2024/01/09 11:02:36;;;;;;;26.70;9.30;;;;;;;-6.94;100.00;94375.81;5032463;28;20126;-66
2024/01/09 11:05:07;;;;;;;39.05;14.65;;;;;;;-7.24;100.00;94382.47;5031817;28;20393;-66
2024/01/09 11:07:35;;;;;;;36.72;12.38;;;;;;;-7.77;100.00;94378.19;5032167;28;20426;-65
2024/01/09 11:10:03;;;;;;;43.67;17.08;;;;;;;-7.45;100.00;94372.09;5031622;28;20564;-65
2024/01/09 11:12:37;;;;;;;30.17;9.90;;;;;;;-7.36;100.00;94376.78;5031624;28;20410;-66